GLD1287 SBUL-SWLC
Flight info
| Callsign | GLD1287 |
|---|---|
| Flight time | 1h 3m |
| Altitude | 8000 |
| Route | TIKS1A EDMIN DIMEM DCT |
| Aircraft | BE58/M-SDFGIRY/S |
Departure
| Time | 2026-05-08 20:30 |
|---|---|
| Airport | Ten. Cel. Aviador César Bombonato Airport (SBUL) |
Arrival
| Time | 2026-05-08 21:34 |
|---|---|
| Airport | General Leite de Castro Airport (SWLC) |
| Time | Latitude | Longitude | Altitude | Speed | Heading |
|---|---|---|---|---|---|
| 2026-05-08 19:32 | -18.89109 | -48.23172 | 3103 ft | 0 kts | 113° |
| 2026-05-08 19:35 | -18.89109 | -48.23173 | 3103 ft | 0 kts | 113° |
| 2026-05-08 19:39 | -18.89108 | -48.23173 | 3103 ft | 0 kts | 113° |
| 2026-05-08 19:39 | -18.89108 | -48.23174 | 3103 ft | 0 kts | 113° |
| 2026-05-08 19:44 | -18.89108 | -48.23175 | 3103 ft | 0 kts | 113° |
| 2026-05-08 19:48 | -18.89108 | -48.23176 | 3103 ft | 0 kts | 113° |
| 2026-05-08 19:50 | -18.89107 | -48.23176 | 3103 ft | 0 kts | 113° |
| 2026-05-08 19:52 | -18.89107 | -48.23177 | 3103 ft | 0 kts | 113° |
| 2026-05-08 19:56 | -18.89107 | -48.23178 | 3103 ft | 0 kts | 113° |
| 2026-05-08 20:01 | -18.89107 | -48.23179 | 3103 ft | 0 kts | 113° |
| 2026-05-08 20:01 | -18.89106 | -48.23179 | 3103 ft | 0 kts | 113° |
| 2026-05-08 20:05 | -18.89106 | -48.23180 | 3103 ft | 0 kts | 113° |
| 2026-05-08 20:09 | -18.89120 | -48.23144 | 3103 ft | 0 kts | 113° |
| 2026-05-08 20:09 | -18.89112 | -48.23166 | 3103 ft | 0 kts | 113° |
| 2026-05-08 20:12 | -18.89111 | -48.23166 | 3103 ft | 0 kts | 113° |
| 2026-05-08 20:12 | -18.89111 | -48.23167 | 3103 ft | 0 kts | 113° |
| 2026-05-08 20:18 | -18.89111 | -48.23168 | 3103 ft | 0 kts | 113° |
| 2026-05-08 20:22 | -18.89118 | -48.23151 | 3103 ft | 8 kts | 116° |
| 2026-05-08 20:22 | -18.89151 | -48.23085 | 3102 ft | 8 kts | 118° |
| 2026-05-08 20:22 | -18.89119 | -48.23047 | 3102 ft | 10 kts | 20° |
| 2026-05-08 20:22 | -18.89072 | -48.23028 | 3102 ft | 11 kts | 24° |
| 2026-05-08 20:23 | -18.89026 | -48.22992 | 3102 ft | 0 kts | 115° |
| 2026-05-08 20:26 | -18.89025 | -48.22992 | 3102 ft | 0 kts | 115° |
| 2026-05-08 20:26 | -18.89034 | -48.22974 | 3102 ft | 7 kts | 116° |
| 2026-05-08 20:26 | -18.89053 | -48.22930 | 3101 ft | 11 kts | 111° |
| 2026-05-08 20:26 | -18.89165 | -48.22917 | 3101 ft | 14 kts | 170° |
| 2026-05-08 20:27 | -18.89222 | -48.22929 | 3101 ft | 15 kts | 243° |
| 2026-05-08 20:27 | -18.89180 | -48.22951 | 3101 ft | 11 kts | 24° |
| 2026-05-08 20:27 | -18.89165 | -48.22945 | 3101 ft | 0 kts | 20° |
| 2026-05-08 20:29 | -18.89165 | -48.22946 | 3101 ft | 0 kts | 20° |
| 2026-05-08 20:29 | -18.89122 | -48.22927 | 3101 ft | 34 kts | 23° |
| 2026-05-08 20:30 | -18.88676 | -48.22732 | 3122 ft | 94 kts | 22° |
| 2026-05-08 20:30 | -18.87989 | -48.22430 | 3305 ft | 116 kts | 24° |
| 2026-05-08 20:30 | -18.87200 | -48.22091 | 3558 ft | 127 kts | 25° |
| 2026-05-08 20:30 | -18.86356 | -48.21713 | 3752 ft | 138 kts | 23° |
| 2026-05-08 20:31 | -18.85464 | -48.21299 | 3954 ft | 141 kts | 22° |
| 2026-05-08 20:31 | -18.84555 | -48.20890 | 4158 ft | 141 kts | 21° |
| 2026-05-08 20:31 | -18.83580 | -48.20768 | 4363 ft | 150 kts | 351° |
| 2026-05-08 20:31 | -18.82625 | -48.21266 | 4585 ft | 164 kts | 319° |
| 2026-05-08 20:32 | -18.82034 | -48.22325 | 4809 ft | 174 kts | 295° |
| 2026-05-08 20:32 | -18.81605 | -48.23527 | 5025 ft | 176 kts | 294° |
| 2026-05-08 20:32 | -18.81174 | -48.24730 | 5237 ft | 174 kts | 294° |
| 2026-05-08 20:32 | -18.80741 | -48.25919 | 5450 ft | 173 kts | 295° |
| 2026-05-08 20:33 | -18.80310 | -48.27099 | 5664 ft | 172 kts | 294° |
| 2026-05-08 20:33 | -18.79884 | -48.28267 | 5876 ft | 169 kts | 294° |
| 2026-05-08 20:33 | -18.79465 | -48.29413 | 6093 ft | 166 kts | 295° |
| 2026-05-08 20:33 | -18.79051 | -48.30544 | 6309 ft | 164 kts | 295° |
| 2026-05-08 20:34 | -18.78644 | -48.31660 | 6514 ft | 161 kts | 294° |
| 2026-05-08 20:34 | -18.78247 | -48.32746 | 6713 ft | 157 kts | 295° |
| 2026-05-08 20:34 | -18.77474 | -48.34859 | 7118 ft | 151 kts | 294° |
| 2026-05-08 20:35 | -18.77101 | -48.35878 | 7319 ft | 147 kts | 295° |
| 2026-05-08 20:35 | -18.76740 | -48.36868 | 7523 ft | 143 kts | 294° |
| 2026-05-08 20:35 | -18.76384 | -48.37838 | 7726 ft | 140 kts | 294° |
| 2026-05-08 20:35 | -18.76021 | -48.38824 | 7932 ft | 148 kts | 294° |
| 2026-05-08 20:36 | -18.75631 | -48.39886 | 7984 ft | 164 kts | 294° |
| 2026-05-08 20:36 | -18.75206 | -48.41050 | 7996 ft | 175 kts | 294° |
| 2026-05-08 20:36 | -18.74758 | -48.42272 | 7999 ft | 182 kts | 294° |
| 2026-05-08 20:36 | -18.74299 | -48.43530 | 7995 ft | 185 kts | 294° |
| 2026-05-08 20:37 | -18.73832 | -48.44805 | 7988 ft | 187 kts | 293° |
| 2026-05-08 20:37 | -18.73362 | -48.46088 | 7983 ft | 187 kts | 293° |
| 2026-05-08 20:37 | -18.72891 | -48.47372 | 7980 ft | 188 kts | 294° |
| 2026-05-08 20:37 | -18.72417 | -48.48663 | 7970 ft | 189 kts | 293° |
| 2026-05-08 20:38 | -18.71942 | -48.49960 | 7968 ft | 189 kts | 293° |
| 2026-05-08 20:38 | -18.71468 | -48.51254 | 7963 ft | 189 kts | 294° |
| 2026-05-08 20:38 | -18.70993 | -48.52548 | 7953 ft | 190 kts | 294° |
| 2026-05-08 20:38 | -18.70515 | -48.53847 | 7950 ft | 190 kts | 293° |
| 2026-05-08 20:39 | -18.70042 | -48.55136 | 7945 ft | 188 kts | 294° |
| 2026-05-08 20:39 | -18.69570 | -48.56424 | 7945 ft | 188 kts | 294° |
| 2026-05-08 20:39 | -18.69095 | -48.57715 | 7942 ft | 189 kts | 294° |
| 2026-05-08 20:39 | -18.68618 | -48.59012 | 7943 ft | 190 kts | 293° |
| 2026-05-08 20:40 | -18.68142 | -48.60309 | 7944 ft | 189 kts | 293° |
| 2026-05-08 20:40 | -18.67667 | -48.61604 | 7942 ft | 189 kts | 293° |
| 2026-05-08 20:40 | -18.67401 | -48.62960 | 7940 ft | 190 kts | 278° |
| 2026-05-08 20:40 | -18.67279 | -48.64349 | 7940 ft | 191 kts | 278° |
| 2026-05-08 20:41 | -18.67146 | -48.65743 | 7941 ft | 191 kts | 279° |
| 2026-05-08 20:41 | -18.67012 | -48.67138 | 7939 ft | 191 kts | 279° |
| 2026-05-08 20:41 | -18.66878 | -48.68530 | 7939 ft | 191 kts | 278° |
| 2026-05-08 20:41 | -18.66746 | -48.69919 | 7938 ft | 190 kts | 279° |
| 2026-05-08 20:42 | -18.66612 | -48.71308 | 7939 ft | 190 kts | 278° |
| 2026-05-08 20:42 | -18.66480 | -48.72691 | 7939 ft | 189 kts | 278° |
| 2026-05-08 20:42 | -18.66348 | -48.74071 | 7938 ft | 189 kts | 278° |
| 2026-05-08 20:42 | -18.66215 | -48.75453 | 7939 ft | 189 kts | 279° |
| 2026-05-08 20:43 | -18.66082 | -48.76836 | 7941 ft | 190 kts | 278° |
| 2026-05-08 20:43 | -18.65949 | -48.78219 | 7941 ft | 189 kts | 278° |
| 2026-05-08 20:43 | -18.65816 | -48.79599 | 7938 ft | 189 kts | 279° |
| 2026-05-08 20:43 | -18.65683 | -48.80980 | 7938 ft | 189 kts | 279° |
| 2026-05-08 20:44 | -18.65550 | -48.82362 | 7936 ft | 189 kts | 278° |
| 2026-05-08 20:44 | -18.65417 | -48.83741 | 7936 ft | 189 kts | 279° |
| 2026-05-08 20:44 | -18.65284 | -48.85118 | 7933 ft | 189 kts | 279° |
| 2026-05-08 20:44 | -18.65151 | -48.86498 | 7933 ft | 189 kts | 278° |
| 2026-05-08 20:45 | -18.65018 | -48.87874 | 7935 ft | 189 kts | 278° |
| 2026-05-08 20:45 | -18.64884 | -48.89253 | 7934 ft | 189 kts | 279° |
| 2026-05-08 20:45 | -18.64750 | -48.90634 | 7928 ft | 189 kts | 278° |
| 2026-05-08 20:45 | -18.64617 | -48.92008 | 7932 ft | 188 kts | 279° |
| 2026-05-08 20:46 | -18.64484 | -48.93379 | 7926 ft | 189 kts | 279° |
| 2026-05-08 20:46 | -18.64350 | -48.94757 | 7929 ft | 189 kts | 278° |
| 2026-05-08 20:46 | -18.64218 | -48.96119 | 7930 ft | 190 kts | 279° |
| 2026-05-08 20:46 | -18.64084 | -48.97504 | 7929 ft | 190 kts | 279° |
| 2026-05-08 20:47 | -18.63949 | -48.98892 | 7929 ft | 190 kts | 279° |
| 2026-05-08 20:47 | -18.63813 | -49.00284 | 7925 ft | 191 kts | 279° |
| 2026-05-08 20:47 | -18.63677 | -49.01678 | 7920 ft | 191 kts | 279° |
| 2026-05-08 20:47 | -18.63542 | -49.03067 | 7924 ft | 190 kts | 279° |
| 2026-05-08 20:48 | -18.63407 | -49.04450 | 7923 ft | 190 kts | 279° |
| 2026-05-08 20:48 | -18.63272 | -49.05838 | 7923 ft | 190 kts | 279° |
| 2026-05-08 20:48 | -18.63136 | -49.07223 | 7925 ft | 190 kts | 279° |
| 2026-05-08 20:48 | -18.63000 | -49.08609 | 7921 ft | 190 kts | 279° |
| 2026-05-08 20:49 | -18.62865 | -49.09993 | 7921 ft | 190 kts | 279° |
| 2026-05-08 20:49 | -18.62730 | -49.11373 | 7921 ft | 190 kts | 279° |
| 2026-05-08 20:49 | -18.62594 | -49.12756 | 7925 ft | 190 kts | 279° |
| 2026-05-08 20:49 | -18.62458 | -49.14148 | 7920 ft | 191 kts | 279° |
| 2026-05-08 20:50 | -18.62321 | -49.15541 | 7916 ft | 191 kts | 279° |
| 2026-05-08 20:50 | -18.62184 | -49.16934 | 7918 ft | 191 kts | 279° |
| 2026-05-08 20:50 | -18.62048 | -49.18324 | 7917 ft | 191 kts | 279° |
| 2026-05-08 20:50 | -18.61912 | -49.19699 | 7917 ft | 191 kts | 279° |
| 2026-05-08 20:51 | -18.61774 | -49.21106 | 7914 ft | 190 kts | 279° |
| 2026-05-08 20:51 | -18.61639 | -49.22475 | 7916 ft | 190 kts | 279° |
| 2026-05-08 20:51 | -18.61502 | -49.23859 | 7913 ft | 190 kts | 279° |
| 2026-05-08 20:51 | -18.61365 | -49.25246 | 7909 ft | 190 kts | 279° |
| 2026-05-08 20:52 | -18.61229 | -49.26629 | 7906 ft | 190 kts | 279° |
| 2026-05-08 20:52 | -18.61092 | -49.28012 | 7909 ft | 189 kts | 279° |
| 2026-05-08 20:52 | -18.60955 | -49.29394 | 7910 ft | 190 kts | 279° |
| 2026-05-08 20:52 | -18.60819 | -49.30775 | 7913 ft | 190 kts | 279° |
| 2026-05-08 20:53 | -18.60681 | -49.32159 | 7909 ft | 190 kts | 279° |
| 2026-05-08 20:53 | -18.60544 | -49.33544 | 7912 ft | 190 kts | 279° |
| 2026-05-08 20:53 | -18.60407 | -49.34931 | 7914 ft | 190 kts | 279° |
| 2026-05-08 20:53 | -18.60269 | -49.36317 | 7908 ft | 190 kts | 279° |
| 2026-05-08 20:54 | -18.60132 | -49.37700 | 7910 ft | 190 kts | 279° |
| 2026-05-08 20:54 | -18.59994 | -49.39085 | 7910 ft | 190 kts | 279° |
| 2026-05-08 20:54 | -18.59856 | -49.40468 | 7910 ft | 190 kts | 279° |
| 2026-05-08 20:54 | -18.59719 | -49.41849 | 7909 ft | 189 kts | 279° |
| 2026-05-08 20:55 | -18.59581 | -49.43232 | 7908 ft | 190 kts | 279° |
| 2026-05-08 20:55 | -18.59443 | -49.44614 | 7909 ft | 190 kts | 279° |
| 2026-05-08 20:55 | -18.59305 | -49.45998 | 7910 ft | 190 kts | 279° |
| 2026-05-08 20:55 | -18.59166 | -49.47382 | 7907 ft | 190 kts | 279° |
| 2026-05-08 20:56 | -18.59027 | -49.48772 | 7909 ft | 190 kts | 279° |
| 2026-05-08 20:56 | -18.58889 | -49.50160 | 7907 ft | 190 kts | 279° |
| 2026-05-08 20:56 | -18.58750 | -49.51548 | 7902 ft | 191 kts | 279° |
| 2026-05-08 20:56 | -18.58610 | -49.52936 | 7909 ft | 190 kts | 279° |
| 2026-05-08 20:57 | -18.58472 | -49.54324 | 7909 ft | 190 kts | 279° |
| 2026-05-08 20:57 | -18.58332 | -49.55711 | 7910 ft | 191 kts | 279° |
| 2026-05-08 20:57 | -18.58193 | -49.57099 | 7906 ft | 190 kts | 279° |
| 2026-05-08 20:57 | -18.58054 | -49.58485 | 7907 ft | 190 kts | 279° |
| 2026-05-08 20:58 | -18.57914 | -49.59871 | 7906 ft | 190 kts | 279° |
| 2026-05-08 20:58 | -18.57775 | -49.61256 | 7902 ft | 190 kts | 279° |
| 2026-05-08 20:58 | -18.57635 | -49.62642 | 7902 ft | 190 kts | 279° |
| 2026-05-08 20:58 | -18.57496 | -49.64026 | 7906 ft | 190 kts | 279° |
| 2026-05-08 20:59 | -18.57356 | -49.65407 | 7906 ft | 189 kts | 279° |
| 2026-05-08 20:59 | -18.57217 | -49.66787 | 7901 ft | 189 kts | 279° |
| 2026-05-08 20:59 | -18.57078 | -49.68169 | 7904 ft | 189 kts | 279° |
| 2026-05-08 20:59 | -18.56938 | -49.69547 | 7906 ft | 189 kts | 279° |
| 2026-05-08 21:00 | -18.56799 | -49.70927 | 7904 ft | 189 kts | 279° |
| 2026-05-08 21:00 | -18.56659 | -49.72304 | 7901 ft | 189 kts | 279° |
| 2026-05-08 21:00 | -18.56520 | -49.73680 | 7903 ft | 189 kts | 280° |
| 2026-05-08 21:00 | -18.56381 | -49.75054 | 7903 ft | 189 kts | 279° |
| 2026-05-08 21:01 | -18.56241 | -49.76430 | 7903 ft | 189 kts | 280° |
| 2026-05-08 21:01 | -18.56102 | -49.77801 | 7900 ft | 188 kts | 280° |
| 2026-05-08 21:01 | -18.55963 | -49.79166 | 7903 ft | 188 kts | 279° |
| 2026-05-08 21:01 | -18.55824 | -49.80535 | 7900 ft | 188 kts | 280° |
| 2026-05-08 21:02 | -18.55684 | -49.81907 | 7900 ft | 188 kts | 280° |
| 2026-05-08 21:02 | -18.55545 | -49.83279 | 7903 ft | 188 kts | 280° |
| 2026-05-08 21:02 | -18.55405 | -49.84649 | 7901 ft | 188 kts | 280° |
| 2026-05-08 21:02 | -18.55267 | -49.86000 | 7898 ft | 188 kts | 280° |
| 2026-05-08 21:03 | -18.55127 | -49.87371 | 7897 ft | 188 kts | 280° |
| 2026-05-08 21:03 | -18.54996 | -49.88656 | 7896 ft | 187 kts | 280° |
| 2026-05-08 21:03 | -18.54857 | -49.90015 | 7895 ft | 187 kts | 280° |
| 2026-05-08 21:03 | -18.54718 | -49.91378 | 7902 ft | 187 kts | 280° |
| 2026-05-08 21:04 | -18.54578 | -49.92743 | 7900 ft | 187 kts | 280° |
| 2026-05-08 21:04 | -18.54439 | -49.94101 | 7902 ft | 187 kts | 279° |
| 2026-05-08 21:04 | -18.54300 | -49.95462 | 7898 ft | 187 kts | 279° |
| 2026-05-08 21:04 | -18.54160 | -49.96823 | 7896 ft | 187 kts | 280° |
| 2026-05-08 21:05 | -18.54020 | -49.98182 | 7897 ft | 186 kts | 280° |
| 2026-05-08 21:05 | -18.53881 | -49.99539 | 7895 ft | 186 kts | 280° |
| 2026-05-08 21:05 | -18.53742 | -50.00896 | 7896 ft | 186 kts | 280° |
| 2026-05-08 21:05 | -18.53602 | -50.02255 | 7898 ft | 187 kts | 280° |
| 2026-05-08 21:06 | -18.53462 | -50.03612 | 7898 ft | 186 kts | 280° |
| 2026-05-08 21:06 | -18.53323 | -50.04965 | 7897 ft | 186 kts | 280° |
| 2026-05-08 21:06 | -18.53183 | -50.06322 | 7899 ft | 186 kts | 280° |
| 2026-05-08 21:06 | -18.53043 | -50.07677 | 7898 ft | 186 kts | 280° |
| 2026-05-08 21:07 | -18.52903 | -50.09032 | 7898 ft | 186 kts | 280° |
| 2026-05-08 21:07 | -18.52763 | -50.10390 | 7900 ft | 187 kts | 280° |
| 2026-05-08 21:07 | -18.52623 | -50.11748 | 7899 ft | 187 kts | 280° |
| 2026-05-08 21:07 | -18.52482 | -50.13106 | 7899 ft | 187 kts | 280° |
| 2026-05-08 21:08 | -18.52342 | -50.14465 | 7896 ft | 187 kts | 280° |
| 2026-05-08 21:08 | -18.52201 | -50.15825 | 7898 ft | 187 kts | 280° |
| 2026-05-08 21:08 | -18.52060 | -50.17185 | 7897 ft | 187 kts | 280° |
| 2026-05-08 21:08 | -18.51919 | -50.18546 | 7897 ft | 187 kts | 280° |
| 2026-05-08 21:09 | -18.51778 | -50.19905 | 7895 ft | 187 kts | 280° |
| 2026-05-08 21:09 | -18.51636 | -50.21269 | 7895 ft | 187 kts | 280° |
| 2026-05-08 21:09 | -18.51494 | -50.22635 | 7893 ft | 188 kts | 280° |
| 2026-05-08 21:09 | -18.51352 | -50.23999 | 7897 ft | 187 kts | 280° |
| 2026-05-08 21:10 | -18.51213 | -50.25337 | 7896 ft | 187 kts | 280° |
| 2026-05-08 21:10 | -18.51068 | -50.26723 | 7895 ft | 187 kts | 280° |
| 2026-05-08 21:10 | -18.50926 | -50.28089 | 7894 ft | 188 kts | 280° |
| 2026-05-08 21:10 | -18.50784 | -50.29455 | 7898 ft | 188 kts | 281° |
| 2026-05-08 21:11 | -18.50641 | -50.30822 | 7896 ft | 188 kts | 280° |
| 2026-05-08 21:11 | -18.50498 | -50.32187 | 7893 ft | 187 kts | 280° |
| 2026-05-08 21:11 | -18.50355 | -50.33553 | 7895 ft | 188 kts | 280° |
| 2026-05-08 21:11 | -18.50213 | -50.34918 | 7896 ft | 188 kts | 280° |
| 2026-05-08 21:12 | -18.50070 | -50.36282 | 7895 ft | 187 kts | 280° |
| 2026-05-08 21:12 | -18.49929 | -50.37631 | 7893 ft | 187 kts | 280° |
| 2026-05-08 21:12 | -18.49786 | -50.38992 | 7896 ft | 187 kts | 280° |
| 2026-05-08 21:12 | -18.49643 | -50.40356 | 7892 ft | 187 kts | 281° |
| 2026-05-08 21:13 | -18.49500 | -50.41719 | 7894 ft | 188 kts | 280° |
| 2026-05-08 21:13 | -18.49356 | -50.43084 | 7896 ft | 187 kts | 280° |
| 2026-05-08 21:13 | -18.49214 | -50.44444 | 7897 ft | 187 kts | 281° |
| 2026-05-08 21:13 | -18.49070 | -50.45806 | 7899 ft | 187 kts | 281° |
| 2026-05-08 21:14 | -18.48927 | -50.47164 | 7900 ft | 187 kts | 280° |
| 2026-05-08 21:14 | -18.48781 | -50.48527 | 7898 ft | 186 kts | 282° |
| 2026-05-08 21:14 | -18.48358 | -50.49782 | 7895 ft | 181 kts | 304° |
| 2026-05-08 21:14 | -18.47533 | -50.50769 | 7898 ft | 179 kts | 318° |
| 2026-05-08 21:15 | -18.46928 | -50.51363 | 7898 ft | 180 kts | 318° |
| 2026-05-08 21:15 | -18.45707 | -50.52573 | 7903 ft | 180 kts | 318° |
| 2026-05-08 21:15 | -18.45104 | -50.53173 | 7902 ft | 181 kts | 318° |
| 2026-05-08 21:15 | -18.44189 | -50.54081 | 7900 ft | 181 kts | 318° |
| 2026-05-08 21:16 | -18.43273 | -50.54989 | 7903 ft | 181 kts | 318° |
| 2026-05-08 21:16 | -18.42356 | -50.55899 | 7904 ft | 181 kts | 318° |
| 2026-05-08 21:16 | -18.41436 | -50.56811 | 7904 ft | 182 kts | 318° |
| 2026-05-08 21:16 | -18.40515 | -50.57724 | 7906 ft | 182 kts | 318° |
| 2026-05-08 21:17 | -18.39595 | -50.58637 | 7899 ft | 182 kts | 318° |
| 2026-05-08 21:17 | -18.38673 | -50.59550 | 7903 ft | 182 kts | 318° |
| 2026-05-08 21:17 | -18.37751 | -50.60464 | 7900 ft | 182 kts | 318° |
| 2026-05-08 21:17 | -18.36832 | -50.61374 | 7906 ft | 181 kts | 318° |
| 2026-05-08 21:18 | -18.35914 | -50.62284 | 7905 ft | 181 kts | 318° |
| 2026-05-08 21:18 | -18.34997 | -50.63193 | 7908 ft | 180 kts | 319° |
| 2026-05-08 21:18 | -18.34081 | -50.64100 | 7906 ft | 181 kts | 319° |
| 2026-05-08 21:18 | -18.33166 | -50.65006 | 7906 ft | 180 kts | 318° |
| 2026-05-08 21:19 | -18.32252 | -50.65911 | 7900 ft | 179 kts | 318° |
| 2026-05-08 21:19 | -18.31349 | -50.66805 | 7907 ft | 179 kts | 318° |
| 2026-05-08 21:19 | -18.30439 | -50.67705 | 7909 ft | 180 kts | 318° |
| 2026-05-08 21:19 | -18.29525 | -50.68609 | 7907 ft | 181 kts | 318° |
| 2026-05-08 21:20 | -18.28609 | -50.69516 | 7909 ft | 181 kts | 318° |
| 2026-05-08 21:20 | -18.27692 | -50.70424 | 7908 ft | 181 kts | 318° |
| 2026-05-08 21:20 | -18.26777 | -50.71329 | 7905 ft | 181 kts | 318° |
| 2026-05-08 21:20 | -18.25860 | -50.72236 | 7910 ft | 181 kts | 318° |
| 2026-05-08 21:21 | -18.24945 | -50.73141 | 7912 ft | 181 kts | 318° |
| 2026-05-08 21:21 | -18.24026 | -50.74049 | 7913 ft | 181 kts | 318° |
| 2026-05-08 21:21 | -18.23109 | -50.74956 | 7909 ft | 181 kts | 318° |
| 2026-05-08 21:21 | -18.22182 | -50.75872 | 7840 ft | 185 kts | 318° |
| 2026-05-08 21:22 | -18.21246 | -50.76797 | 7727 ft | 181 kts | 318° |
| 2026-05-08 21:22 | -18.20347 | -50.77686 | 7612 ft | 174 kts | 319° |
| 2026-05-08 21:22 | -18.19477 | -50.78546 | 7500 ft | 170 kts | 319° |
| 2026-05-08 21:22 | -18.18630 | -50.79382 | 7392 ft | 164 kts | 319° |
| 2026-05-08 21:23 | -18.17805 | -50.80197 | 7287 ft | 161 kts | 319° |
| 2026-05-08 21:23 | -18.16993 | -50.80999 | 7178 ft | 159 kts | 319° |
| 2026-05-08 21:23 | -18.16192 | -50.81790 | 7079 ft | 158 kts | 319° |
| 2026-05-08 21:23 | -18.15394 | -50.82577 | 6971 ft | 157 kts | 319° |
| 2026-05-08 21:24 | -18.14608 | -50.83354 | 6928 ft | 153 kts | 319° |
| 2026-05-08 21:24 | -18.13830 | -50.84121 | 6852 ft | 153 kts | 319° |
| 2026-05-08 21:24 | -18.13061 | -50.84881 | 6756 ft | 154 kts | 319° |
| 2026-05-08 21:24 | -18.12267 | -50.85664 | 6657 ft | 155 kts | 319° |
| 2026-05-08 21:25 | -18.11491 | -50.86429 | 6563 ft | 155 kts | 319° |
| 2026-05-08 21:25 | -18.10705 | -50.87205 | 6457 ft | 155 kts | 319° |
| 2026-05-08 21:25 | -18.09919 | -50.87980 | 6355 ft | 155 kts | 319° |
| 2026-05-08 21:25 | -18.09130 | -50.88758 | 6250 ft | 156 kts | 319° |
| 2026-05-08 21:26 | -18.08343 | -50.89535 | 6145 ft | 155 kts | 319° |
| 2026-05-08 21:26 | -18.07556 | -50.90310 | 6044 ft | 154 kts | 319° |
| 2026-05-08 21:26 | -18.06774 | -50.91081 | 5942 ft | 154 kts | 319° |
| 2026-05-08 21:26 | -18.05996 | -50.91856 | 5838 ft | 154 kts | 316° |
| 2026-05-08 21:27 | -18.05342 | -50.92760 | 5731 ft | 156 kts | 308° |
| 2026-05-08 21:27 | -18.04712 | -50.93690 | 5632 ft | 157 kts | 309° |
| 2026-05-08 21:27 | -18.04072 | -50.94625 | 5528 ft | 159 kts | 309° |
| 2026-05-08 21:27 | -18.03424 | -50.95570 | 5423 ft | 160 kts | 309° |
| 2026-05-08 21:28 | -18.02780 | -50.96509 | 5315 ft | 157 kts | 309° |
| 2026-05-08 21:28 | -18.02144 | -50.97436 | 5214 ft | 156 kts | 309° |
| 2026-05-08 21:28 | -18.01512 | -50.98358 | 5112 ft | 155 kts | 309° |
| 2026-05-08 21:28 | -18.00900 | -50.99250 | 5010 ft | 139 kts | 310° |
| 2026-05-08 21:29 | -18.00275 | -50.99896 | 4923 ft | 117 kts | 332° |
| 2026-05-08 21:29 | -17.99527 | -51.00150 | 4845 ft | 115 kts | 354° |
| 2026-05-08 21:29 | -17.98730 | -51.00038 | 4770 ft | 118 kts | 12° |
| 2026-05-08 21:29 | -17.97931 | -50.99804 | 4692 ft | 120 kts | 11° |
| 2026-05-08 21:30 | -17.97116 | -50.99568 | 4613 ft | 122 kts | 11° |
| 2026-05-08 21:30 | -17.96298 | -50.99330 | 4534 ft | 122 kts | 11° |
| 2026-05-08 21:30 | -17.95476 | -50.99090 | 4450 ft | 124 kts | 12° |
| 2026-05-08 21:30 | -17.94635 | -50.98845 | 4369 ft | 126 kts | 12° |
| 2026-05-08 21:31 | -17.93777 | -50.98594 | 4302 ft | 129 kts | 12° |
| 2026-05-08 21:31 | -17.92896 | -50.98337 | 4173 ft | 134 kts | 11° |
| 2026-05-08 21:31 | -17.91986 | -50.98071 | 4004 ft | 137 kts | 12° |
| 2026-05-08 21:31 | -17.91067 | -50.97803 | 3832 ft | 137 kts | 12° |
| 2026-05-08 21:32 | -17.90140 | -50.97531 | 3654 ft | 140 kts | 12° |
| 2026-05-08 21:32 | -17.89214 | -50.97260 | 3475 ft | 133 kts | 13° |
| 2026-05-08 21:32 | -17.88393 | -50.97017 | 3310 ft | 108 kts | 10° |
| 2026-05-08 21:32 | -17.87689 | -50.96812 | 3179 ft | 106 kts | 11° |
| 2026-05-08 21:33 | -17.86962 | -50.96602 | 3050 ft | 110 kts | 14° |
| 2026-05-08 21:33 | -17.86222 | -50.96386 | 2918 ft | 110 kts | 13° |
| 2026-05-08 21:33 | -17.85502 | -50.96176 | 2782 ft | 104 kts | 14° |
| 2026-05-08 21:33 | -17.84818 | -50.95975 | 2670 ft | 106 kts | 16° |
| 2026-05-08 21:34 | -17.84081 | -50.95765 | 2528 ft | 108 kts | 15° |
| 2026-05-08 21:34 | -17.83454 | -50.95584 | 2463 ft | 69 kts | 14° |
| 2026-05-08 21:34 | -17.83285 | -50.95538 | 2468 ft | 3 kts | 53° |
| 2026-05-08 21:34 | -17.83323 | -50.95537 | 2466 ft | 12 kts | 198° |
| 2026-05-08 21:35 | -17.83436 | -50.95572 | 2467 ft | 22 kts | 196° |
| 2026-05-08 21:35 | -17.83542 | -50.95599 | 2467 ft | 16 kts | 193° |
| 2026-05-08 21:35 | -17.83645 | -50.95632 | 2463 ft | 15 kts | 195° |
| 2026-05-08 21:35 | -17.83733 | -50.95659 | 2468 ft | 10 kts | 197° |
| 2026-05-08 21:36 | -17.83780 | -50.95701 | 2463 ft | 11 kts | 278° |
| 2026-05-08 21:36 | -17.83770 | -50.95737 | 2461 ft | 0 kts | 287° |
| 2026-05-08 21:37 | -17.83765 | -50.95762 | 2465 ft | 7 kts | 282° |
| 2026-05-08 21:37 | -17.83762 | -50.95811 | 2463 ft | 4 kts | 250° |
| 2026-05-08 21:37 | -17.83763 | -50.95816 | 2464 ft | 0 kts | 266° |
| 2026-05-08 21:37 | -17.83761 | -50.95836 | 2466 ft | 5 kts | 265° |
| 2026-05-08 21:38 | -17.83761 | -50.95862 | 2467 ft | 0 kts | 282° |
| 2026-05-08 21:41 | -17.83761 | -50.95861 | 2467 ft | 0 kts | 282° |
| 2026-05-08 21:43 | -17.83762 | -50.95861 | 2467 ft | 0 kts | 282° |